Time,TemperatureF,DewpointF,PressureIn,WindDirection,WindDirectionDegrees,WindSpeedMPH,WindSpeedGustMPH,Humidity,HourlyPrecipIn,Conditions,Clouds,dailyrainin,SoftwareType,DateUTC
2013-02-12 00:00:00,43.4,41.0,29.83,WSW,243,1.0,3.0,91,0.00,,---,0.24,VWS V14.01,2013-02-12 05:00:00,
2013-02-12 00:05:00,45.2,38.4,29.83,NW,307,2.0,4.0,77,0.00,,---,0.00,VWS V14.01,2013-02-12 05:05:00,
2013-02-12 00:10:00,47.0,35.5,29.84,WNW,290,3.0,5.0,64,0.00,,---,0.00,VWS V14.01,2013-02-12 05:10:00,
2013-02-12 00:15:00,47.9,35.1,29.84,ESE,118,0.0,5.0,61,0.00,,---,0.00,VWS V14.01,2013-02-12 05:15:00,
2013-02-12 00:20:00,48.2,33.7,29.84,SSW,203,0.0,5.0,57,0.00,,---,0.00,VWS V14.01,2013-02-12 05:20:00,
2013-02-12 00:25:00,48.3,33.3,29.84,SSE,149,0.0,5.0,56,0.00,,---,0.00,VWS V14.01,2013-02-12 05:25:00,
2013-02-12 00:30:00,48.7,32.8,29.85,ENE,72,2.0,5.0,54,0.00,,---,0.00,VWS V14.01,2013-02-12 05:30:00,
2013-02-12 00:35:00,49.0,33.1,29.85,SSW,208,0.0,8.0,54,0.00,,---,0.00,VWS V14.01,2013-02-12 05:35:00,
2013-02-12 00:40:00,49.0,33.5,29.85,SE,136,2.0,8.0,55,0.00,,---,0.00,VWS V14.01,2013-02-12 05:40:00,
2013-02-12 00:45:00,48.8,33.4,29.86,ENE,73,2.0,8.0,55,0.00,,---,0.00,VWS V14.01,2013-02-12 05:45:00,
2013-02-12 00:50:00,48.7,33.7,29.85,ESE,123,1.0,8.0,56,0.00,,---,0.00,VWS V14.01,2013-02-12 05:50:00,
2013-02-12 00:55:00,48.6,33.2,29.85,SE,138,2.0,8.0,55,0.00,,---,0.00,VWS V14.01,2013-02-12 05:55:00,
2013-02-12 01:00:00,48.5,33.1,29.85,NNW,341,2.0,8.0,55,0.00,,---,0.00,VWS V14.01,2013-02-12 06:00:00,
2013-02-12 01:05:00,48.5,33.5,29.86,SSW,208,2.0,3.0,56,0.00,,---,0.00,VWS V14.01,2013-02-12 06:05:00,
2013-02-12 01:10:00,48.2,34.1,29.86,NW,309,1.0,3.0,58,0.00,,---,0.00,VWS V14.01,2013-02-12 06:10:00,
2013-02-12 01:15:00,47.8,32.9,29.86,NW,325,2.0,5.0,56,0.00,,---,0.00,VWS V14.01,2013-02-12 06:15:00,
2013-02-12 01:20:00,47.8,33.3,29.86,NW,315,0.0,5.0,57,0.00,,---,0.00,VWS V14.01,2013-02-12 06:20:00,
2013-02-12 01:25:00,47.7,33.2,29.86,West,281,1.0,5.0,57,0.00,,---,0.00,VWS V14.01,2013-02-12 06:25:00,
2013-02-12 01:30:00,47.6,34.0,29.87,SW,233,0.0,5.0,59,0.00,,---,0.00,VWS V14.01,2013-02-12 06:30:00,
2013-02-12 01:35:00,47.1,33.9,29.87,WNW,283,0.0,1.0,60,0.00,,---,0.00,VWS V14.01,2013-02-12 06:35:00,
2013-02-12 01:40:00,47.0,33.4,29.87,SW,218,0.0,4.0,59,0.00,,---,0.00,VWS V14.01,2013-02-12 06:40:00,
2013-02-12 01:45:00,46.8,33.2,29.87,South,170,0.0,4.0,59,0.00,,---,0.00,VWS V14.01,2013-02-12 06:45:00,
2013-02-12 01:50:00,46.4,33.3,29.88,ESE,115,0.0,4.0,60,0.00,,---,0.00,VWS V14.01,2013-02-12 06:50:00,
2013-02-12 01:55:00,46.0,33.7,29.88,SSW,201,1.0,4.0,62,0.00,,---,0.00,VWS V14.01,2013-02-12 06:55:00,
2013-02-12 02:00:00,46.0,33.3,29.88,East,100,0.0,5.0,61,0.00,,---,0.00,VWS V14.01,2013-02-12 07:00:00,
2013-02-12 02:05:00,45.8,33.5,29.89,SW,231,0.0,0.0,62,0.00,,---,0.00,VWS V14.01,2013-02-12 07:05:00,
2013-02-12 02:10:00,45.5,33.2,29.88,West,275,0.0,2.0,62,0.00,,---,0.00,VWS V14.01,2013-02-12 07:10:00,
2013-02-12 02:15:00,45.2,33.0,29.89,WSW,238,0.0,2.0,62,0.00,,---,0.00,VWS V14.01,2013-02-12 07:15:00,
2013-02-12 02:20:00,45.1,32.9,29.89,WNW,285,0.0,2.0,62,0.00,,---,0.00,VWS V14.01,2013-02-12 07:20:00,
2013-02-12 02:25:00,45.6,32.5,29.89,NW,310,0.0,4.0,60,0.00,,---,0.00,VWS V14.01,2013-02-12 07:25:00,
2013-02-12 02:30:00,45.7,31.8,29.89,WNW,295,7.0,7.0,58,0.00,,---,0.00,VWS V14.01,2013-02-12 07:30:00,
2013-02-12 02:35:00,46.4,31.6,29.88,West,274,1.0,6.0,56,0.00,,---,0.00,VWS V14.01,2013-02-12 07:35:00,
2013-02-12 02:40:00,46.5,31.2,29.88,WNW,291,2.0,6.0,55,0.00,,---,0.00,VWS V14.01,2013-02-12 07:40:00,
2013-02-12 02:45:00,46.9,30.7,29.88,ESE,110,1.0,6.0,53,0.00,,---,0.00,VWS V14.01,2013-02-12 07:45:00,
2013-02-12 02:50:00,47.3,30.1,29.88,North,4,0.0,9.0,51,0.00,,---,0.00,VWS V14.01,2013-02-12 07:50:00,
2013-02-12 02:55:00,47.5,30.8,29.88,SSW,211,0.0,9.0,52,0.00,,---,0.00,VWS V14.01,2013-02-12 07:55:00,
2013-02-12 03:00:00,47.5,29.8,29.88,SW,226,2.0,9.0,50,0.00,,---,0.00,VWS V14.01,2013-02-12 08:00:00,
2013-02-12 03:05:00,47.6,29.9,29.88,West,278,5.0,7.0,50,0.00,,---,0.00,VWS V14.01,2013-02-12 08:05:00,
2013-02-12 03:10:00,47.7,30.0,29.88,South,187,3.0,7.0,50,0.00,,---,0.00,VWS V14.01,2013-02-12 08:10:00,
2013-02-12 03:15:00,47.6,29.9,29.88,WSW,243,2.0,7.0,50,0.00,,---,0.00,VWS V14.01,2013-02-12 08:15:00,
2013-02-12 03:20:00,47.5,29.8,29.88,West,267,2.0,7.0,50,0.00,,---,0.00,VWS V14.01,2013-02-12 08:20:00,
2013-02-12 03:25:00,47.3,30.1,29.88,SW,229,2.0,7.0,51,0.00,,---,0.00,VWS V14.01,2013-02-12 08:25:00,
2013-02-12 03:30:00,47.3,30.1,29.88,SW,225,8.0,10.0,51,0.00,,---,0.00,VWS V14.01,2013-02-12 08:30:00,
2013-02-12 03:34:00,47.4,30.2,29.89,NNW,339,1.0,2.0,51,0.00,,---,0.00,VWS V14.01,2013-02-12 08:34:00,
2013-02-12 03:39:00,47.4,30.2,29.88,WSW,255,0.0,6.0,51,0.00,,---,0.00,VWS V14.01,2013-02-12 08:39:00,
2013-02-12 03:44:00,47.1,29.9,29.89,NW,322,2.0,6.0,51,0.00,,---,0.00,VWS V14.01,2013-02-12 08:44:00,
2013-02-12 03:49:00,47.1,30.4,29.89,NW,316,0.0,7.0,52,0.00,,---,0.00,VWS V14.01,2013-02-12 08:49:00,
2013-02-12 03:54:00,47.1,29.9,29.89,NW,309,3.0,7.0,51,0.00,,---,0.00,VWS V14.01,2013-02-12 08:54:00,
2013-02-12 03:59:00,47.5,29.3,29.90,WNW,296,4.0,9.0,49,0.00,,---,0.00,VWS V14.01,2013-02-12 08:59:00,
2013-02-12 04:04:00,47.7,29.5,29.91,West,265,2.0,4.0,49,0.00,,---,0.00,VWS V14.01,2013-02-12 09:04:00,
2013-02-12 04:09:00,47.7,29.5,29.91,West,276,1.0,9.0,49,0.00,,---,0.00,VWS V14.01,2013-02-12 09:09:00,
2013-02-12 04:14:00,47.7,29.5,29.91,NW,316,4.0,9.0,49,0.00,,---,0.00,VWS V14.01,2013-02-12 09:14:00,
2013-02-12 04:19:00,47.8,29.6,29.90,West,271,1.0,9.0,49,0.00,,---,0.00,VWS V14.01,2013-02-12 09:19:00,
2013-02-12 04:24:00,47.7,29.5,29.91,NNE,33,1.0,9.0,49,0.00,,---,0.00,VWS V14.01,2013-02-12 09:24:00,
2013-02-12 04:29:00,47.7,29.5,29.91,West,276,0.0,9.0,49,0.00,,---,0.00,VWS V14.01,2013-02-12 09:29:00,
2013-02-12 04:34:00,47.3,29.6,29.91,NNW,331,0.0,4.0,50,0.00,,---,0.00,VWS V14.01,2013-02-12 09:34:00,
2013-02-12 04:39:00,46.9,29.2,29.92,West,264,3.0,6.0,50,0.00,,---,0.00,VWS V14.01,2013-02-12 09:39:00,
2013-02-12 04:44:00,46.8,29.6,29.92,WSW,238,0.0,6.0,51,0.00,,---,0.00,VWS V14.01,2013-02-12 09:44:00,
2013-02-12 04:49:00,46.5,29.4,29.92,West,271,0.0,6.0,51,0.00,,---,0.00,VWS V14.01,2013-02-12 09:49:00,
2013-02-12 04:54:00,46.3,29.6,29.92,West,271,1.0,6.0,52,0.00,,---,0.00,VWS V14.01,2013-02-12 09:54:00,
2013-02-12 04:59:00,46.1,29.0,29.92,WSW,255,2.0,8.0,51,0.00,,---,0.00,VWS V14.01,2013-02-12 09:59:00,
2013-02-12 05:04:00,46.3,29.2,29.92,WNW,293,1.0,5.0,51,0.00,,---,0.00,VWS V14.01,2013-02-12 10:04:00,
2013-02-12 05:09:00,46.2,29.1,29.92,West,270,2.0,5.0,51,0.00,,---,0.00,VWS V14.01,2013-02-12 10:09:00,
2013-02-12 05:14:00,46.0,28.9,29.93,NW,311,0.0,5.0,51,0.00,,---,0.00,VWS V14.01,2013-02-12 10:14:00,
2013-02-12 05:19:00,46.3,29.2,29.93,NW,307,1.0,7.0,51,0.00,,---,0.00,VWS V14.01,2013-02-12 10:19:00,
2013-02-12 05:24:00,46.0,28.9,29.92,NNW,341,1.0,7.0,51,0.00,,---,0.00,VWS V14.01,2013-02-12 10:24:00,
2013-02-12 05:29:00,45.8,28.7,29.92,NW,308,0.0,7.0,51,0.00,,---,0.00,VWS V14.01,2013-02-12 10:29:00,
2013-02-12 05:34:00,45.7,28.6,29.92,WNW,284,0.0,3.0,51,0.00,,---,0.00,VWS V14.01,2013-02-12 10:34:00,
2013-02-12 05:39:00,45.3,28.2,29.93,NW,321,1.0,3.0,51,0.00,,---,0.00,VWS V14.01,2013-02-12 10:39:00,
2013-02-12 05:44:00,45.0,28.5,29.93,WSW,252,1.0,3.0,52,0.00,,---,0.00,VWS V14.01,2013-02-12 10:44:00,
2013-02-12 05:49:00,45.0,28.5,29.93,WNW,285,0.0,3.0,52,0.00,,---,0.00,VWS V14.01,2013-02-12 10:49:00,
2013-02-12 05:54:00,44.9,28.4,29.93,North,4,0.0,3.0,52,0.00,,---,0.00,VWS V14.01,2013-02-12 10:54:00,
2013-02-12 05:59:00,44.8,28.3,29.93,WSW,252,0.0,3.0,52,0.00,,---,0.00,VWS V14.01,2013-02-12 10:59:00,
2013-02-12 06:04:00,44.5,28.5,29.93,NNW,336,0.0,0.0,53,0.00,,---,0.00,VWS V14.01,2013-02-12 11:04:00,
2013-02-12 06:09:00,44.2,28.2,29.93,SSW,208,0.0,2.0,53,0.00,,---,0.00,VWS V14.01,2013-02-12 11:09:00,
2013-02-12 06:14:00,44.1,28.1,29.94,West,267,1.0,2.0,53,0.00,,---,0.00,VWS V14.01,2013-02-12 11:14:00,
2013-02-12 06:19:00,44.1,28.1,29.95,West,275,0.0,3.0,53,0.00,,---,0.00,VWS V14.01,2013-02-12 11:19:00,
2013-02-12 06:24:00,44.0,28.0,29.95,West,281,1.0,3.0,53,0.00,,---,0.00,VWS V14.01,2013-02-12 11:24:00,
2013-02-12 06:29:00,44.0,28.0,29.95,NNW,328,1.0,3.0,53,0.00,,---,0.00,VWS V14.01,2013-02-12 11:29:00,
2013-02-12 06:34:00,44.2,27.7,29.95,North,356,4.0,4.0,52,0.00,,---,0.00,VWS V14.01,2013-02-12 11:34:00,
2013-02-12 06:39:00,44.3,27.3,29.95,WSW,256,1.0,6.0,51,0.00,,---,0.00,VWS V14.01,2013-02-12 11:39:00,
2013-02-12 06:44:00,44.3,27.3,29.95,West,267,3.0,6.0,51,0.00,,---,0.00,VWS V14.01,2013-02-12 11:44:00,
2013-02-12 06:49:00,44.5,27.5,29.95,NW,314,0.0,7.0,51,0.00,,---,0.00,VWS V14.01,2013-02-12 11:49:00,
2013-02-12 06:54:00,44.5,27.0,29.95,WNW,298,1.0,7.0,50,0.00,,---,0.00,VWS V14.01,2013-02-12 11:54:00,
2013-02-12 06:59:00,44.6,27.1,29.95,WNW,284,2.0,7.0,50,0.00,,---,0.00,VWS V14.01,2013-02-12 11:59:00,
2013-02-12 07:04:00,44.5,27.5,29.96,West,281,1.0,1.0,51,0.00,,---,0.00,VWS V14.01,2013-02-12 12:04:00,
2013-02-12 07:09:00,44.3,27.3,29.96,West,281,1.0,3.0,51,0.00,,---,0.00,VWS V14.01,2013-02-12 12:09:00,
2013-02-12 07:14:00,44.1,27.1,29.97,West,276,0.0,3.0,51,0.00,,---,0.00,VWS V14.01,2013-02-12 12:14:00,
2013-02-12 07:19:00,44.1,27.1,29.97,West,263,1.0,3.0,51,0.00,,---,0.00,VWS V14.01,2013-02-12 12:19:00,
2013-02-12 07:24:00,44.1,27.1,29.97,WNW,285,0.0,3.0,51,0.00,,---,0.00,VWS V14.01,2013-02-12 12:24:00,
2013-02-12 07:29:00,43.9,27.4,29.97,West,275,0.0,3.0,52,0.00,,---,0.00,VWS V14.01,2013-02-12 12:29:00,
2013-02-12 07:34:00,44.0,27.0,29.97,WNW,298,0.0,3.0,51,0.00,,---,0.00,VWS V14.01,2013-02-12 12:34:00,
2013-02-12 07:39:00,44.1,27.1,29.97,West,264,0.0,3.0,51,0.00,,---,0.00,VWS V14.01,2013-02-12 12:39:00,
2013-02-12 07:44:00,44.1,27.6,29.97,East,85,0.0,3.0,52,0.00,,---,0.00,VWS V14.01,2013-02-12 12:44:00,
2013-02-12 07:49:00,44.1,27.1,29.97,WNW,288,0.0,3.0,51,0.00,,---,0.00,VWS V14.01,2013-02-12 12:49:00,
2013-02-12 07:54:00,44.1,27.6,29.98,WNW,284,0.0,3.0,52,0.00,,---,0.00,VWS V14.01,2013-02-12 12:54:00,
2013-02-12 07:59:00,44.2,27.2,29.98,West,274,0.0,3.0,51,0.00,,---,0.00,VWS V14.01,2013-02-12 12:59:00,
2013-02-12 08:04:00,44.1,27.6,29.98,West,276,0.0,0.0,52,0.00,,---,0.00,VWS V14.01,2013-02-12 13:04:00,
2013-02-12 08:09:00,44.0,27.5,29.98,West,277,0.0,0.0,52,0.00,,---,0.00,VWS V14.01,2013-02-12 13:09:00,
2013-02-12 08:14:00,43.9,27.9,29.98,WSW,248,0.0,0.0,53,0.00,,---,0.00,VWS V14.01,2013-02-12 13:14:00,
2013-02-12 08:19:00,43.7,27.7,29.99,WSW,248,0.0,0.0,53,0.00,,---,0.00,VWS V14.01,2013-02-12 13:19:00,
2013-02-12 08:24:00,43.3,27.3,29.99,WSW,248,0.0,0.0,53,0.00,,---,0.00,VWS V14.01,2013-02-12 13:24:00,
2013-02-12 08:29:00,43.0,28.0,29.99,WSW,248,0.0,0.0,55,0.00,,---,0.00,VWS V14.01,2013-02-12 13:29:00,
2013-02-12 08:34:00,42.8,27.8,29.99,WSW,248,0.0,0.0,55,0.00,,---,0.00,VWS V14.01,2013-02-12 13:34:00,
2013-02-12 08:39:00,42.6,28.0,29.99,WSW,248,0.0,0.0,56,0.00,,---,0.00,VWS V14.01,2013-02-12 13:39:00,
2013-02-12 08:44:00,42.5,28.4,30.00,WSW,248,0.0,0.0,57,0.00,,---,0.00,VWS V14.01,2013-02-12 13:44:00,
2013-02-12 08:49:00,43.0,28.0,30.00,WSW,248,0.0,0.0,55,0.00,,---,0.00,VWS V14.01,2013-02-12 13:49:00,
2013-02-12 08:54:00,43.7,28.2,30.00,WSW,248,0.0,0.0,54,0.00,,---,0.00,VWS V14.01,2013-02-12 13:54:00,
2013-02-12 08:59:00,44.5,28.5,29.99,WSW,242,0.0,0.0,53,0.00,,---,0.00,VWS V14.01,2013-02-12 13:59:00,
2013-02-12 09:04:00,45.3,28.2,29.99,NNW,338,0.0,0.0,51,0.00,,---,0.00,VWS V14.01,2013-02-12 14:04:00,
2013-02-12 09:09:00,45.8,28.7,30.00,West,259,1.0,4.0,51,0.00,,---,0.00,VWS V14.01,2013-02-12 14:09:00,
2013-02-12 09:14:00,46.4,28.3,29.99,ENE,75,1.0,4.0,49,0.00,,---,0.00,VWS V14.01,2013-02-12 14:14:00,
2013-02-12 09:19:00,46.8,28.7,30.00,West,271,1.0,4.0,49,0.00,,---,0.00,VWS V14.01,2013-02-12 14:19:00,
2013-02-12 09:24:00,47.2,28.5,30.00,West,269,2.0,5.0,48,0.00,,---,0.00,VWS V14.01,2013-02-12 14:24:00,
2013-02-12 09:29:00,47.6,28.9,30.00,NNE,13,1.0,5.0,48,0.00,,---,0.00,VWS V14.01,2013-02-12 14:29:00,
2013-02-12 09:34:00,47.8,29.1,30.00,NNE,25,3.0,3.0,48,0.00,,---,0.00,VWS V14.01,2013-02-12 14:34:00,
2013-02-12 09:39:00,48.0,28.8,30.01,NW,305,2.0,8.0,47,0.00,,---,0.00,VWS V14.01,2013-02-12 14:39:00,
2013-02-12 09:44:00,48.1,28.8,30.01,NW,304,1.0,8.0,47,0.00,,---,0.00,VWS V14.01,2013-02-12 14:44:00,
2013-02-12 09:49:00,48.2,28.9,30.01,West,262,2.0,8.0,47,0.00,,---,0.00,VWS V14.01,2013-02-12 14:49:00,
2013-02-12 09:54:00,48.5,28.7,30.02,NW,305,1.0,8.0,46,0.00,,---,0.00,VWS V14.01,2013-02-12 14:54:00,
2013-02-12 09:59:00,48.8,29.0,30.02,NNW,346,1.0,8.0,46,0.00,,---,0.00,VWS V14.01,2013-02-12 14:59:00,
2013-02-12 10:04:00,49.2,29.3,30.02,NNE,29,1.0,3.0,46,0.00,,---,0.00,VWS V14.01,2013-02-12 15:04:00,
2013-02-12 10:09:00,49.5,29.1,30.02,East,79,2.0,6.0,45,0.00,,---,0.00,VWS V14.01,2013-02-12 15:09:00,
2013-02-12 10:14:00,49.7,29.8,30.02,WNW,284,2.0,6.0,46,0.00,,---,0.00,VWS V14.01,2013-02-12 15:14:00,
2013-02-12 10:19:00,50.0,29.5,30.02,North,4,2.0,6.0,45,0.00,,---,0.00,VWS V14.01,2013-02-12 15:19:00,
2013-02-12 10:24:00,50.4,28.8,30.02,West,266,1.0,6.0,43,0.00,,---,0.00,VWS V14.01,2013-02-12 15:24:00,
2013-02-12 10:29:00,50.5,28.9,30.02,West,264,1.0,6.0,43,0.00,,---,0.00,VWS V14.01,2013-02-12 15:29:00,
2013-02-12 10:34:00,50.6,29.5,30.02,West,273,2.0,4.0,44,0.00,,---,0.00,VWS V14.01,2013-02-12 15:34:00,
2013-02-12 10:39:00,50.8,29.1,30.01,East,86,2.0,7.0,43,0.00,,---,0.00,VWS V14.01,2013-02-12 15:39:00,
2013-02-12 10:44:00,50.9,28.6,30.02,SW,233,2.0,7.0,42,0.00,,---,0.00,VWS V14.01,2013-02-12 15:44:00,
2013-02-12 10:49:00,51.2,28.3,30.02,WSW,252,5.0,7.0,41,0.00,,---,0.00,VWS V14.01,2013-02-12 15:49:00,
2013-02-12 10:54:00,51.3,29.0,30.02,WSW,239,0.0,7.0,42,0.00,,---,0.00,VWS V14.01,2013-02-12 15:54:00,
2013-02-12 10:59:00,51.6,29.3,30.02,NW,325,2.0,11.0,42,0.00,,---,0.00,VWS V14.01,2013-02-12 15:59:00,
2013-02-12 11:04:00,52.1,29.1,30.02,SW,235,2.0,5.0,41,0.00,,---,0.00,VWS V14.01,2013-02-12 16:04:00,
2013-02-12 11:09:00,51.8,28.9,30.02,SSW,197,1.0,5.0,41,0.00,,---,0.00,VWS V14.01,2013-02-12 16:09:00,
2013-02-12 11:14:00,51.8,28.9,30.02,WNW,295,1.0,6.0,41,0.00,,---,0.00,VWS V14.01,2013-02-12 16:14:00,
2013-02-12 11:19:00,52.3,28.1,30.02,North,354,3.0,7.0,39,0.00,,---,0.00,VWS V14.01,2013-02-12 16:19:00,
2013-02-12 11:24:00,52.3,27.5,30.02,WNW,296,2.0,8.0,38,0.00,,---,0.00,VWS V14.01,2013-02-12 16:24:00,
2013-02-12 11:29:00,52.1,27.9,30.02,West,278,0.0,8.0,39,0.00,,---,0.00,VWS V14.01,2013-02-12 16:29:00,
2013-02-12 11:34:00,52.5,28.9,30.02,NW,325,2.0,6.0,40,0.00,,---,0.00,VWS V14.01,2013-02-12 16:34:00,
2013-02-12 11:39:00,52.6,28.4,30.02,West,273,4.0,8.0,39,0.00,,---,0.00,VWS V14.01,2013-02-12 16:39:00,
2013-02-12 11:44:00,52.5,28.9,30.01,WNW,288,1.0,8.0,40,0.00,,---,0.00,VWS V14.01,2013-02-12 16:44:00,
2013-02-12 11:49:00,53.0,28.7,30.01,NNW,331,3.0,8.0,39,0.00,,---,0.00,VWS V14.01,2013-02-12 16:49:00,
2013-02-12 11:54:00,53.2,28.3,30.01,West,278,1.0,8.0,38,0.00,,---,0.00,VWS V14.01,2013-02-12 16:54:00,
2013-02-12 11:59:00,53.2,27.6,30.01,WNW,300,2.0,8.0,37,0.00,,---,0.00,VWS V14.01,2013-02-12 16:59:00,
2013-02-12 12:04:00,53.3,29.0,30.01,WSW,257,0.0,2.0,39,0.00,,---,0.00,VWS V14.01,2013-02-12 17:04:00,
2013-02-12 12:09:00,53.8,27.5,30.01,NW,309,3.0,5.0,36,0.00,,---,0.00,VWS V14.01,2013-02-12 17:09:00,
2013-02-12 12:14:00,53.5,27.2,30.01,SW,236,1.0,11.0,36,0.00,,---,0.00,VWS V14.01,2013-02-12 17:14:00,
2013-02-12 12:19:00,53.7,28.7,30.01,WNW,285,2.0,11.0,38,0.00,,---,0.00,VWS V14.01,2013-02-12 17:19:00,
2013-02-12 12:24:00,53.8,29.4,30.00,North,3,1.0,11.0,39,0.00,,---,0.00,VWS V14.01,2013-02-12 17:24:00,
2013-02-12 12:29:00,54.2,29.2,30.00,NNW,330,0.0,11.0,38,0.00,,---,0.00,VWS V14.01,2013-02-12 17:29:00,
2013-02-12 12:34:00,54.2,27.9,30.00,NW,314,4.0,7.0,36,0.00,,---,0.00,VWS V14.01,2013-02-12 17:34:00,
2013-02-12 12:39:00,53.9,28.2,30.00,WSW,255,3.0,7.0,37,0.00,,---,0.00,VWS V14.01,2013-02-12 17:39:00,
2013-02-12 12:44:00,54.3,29.2,30.00,NNE,29,2.0,7.0,38,0.00,,---,0.00,VWS V14.01,2013-02-12 17:44:00,
2013-02-12 12:49:00,54.7,28.3,29.99,WSW,241,1.0,7.0,36,0.00,,---,0.00,VWS V14.01,2013-02-12 17:49:00,
2013-02-12 12:54:00,54.7,28.3,29.99,North,354,3.0,10.0,36,0.00,,---,0.00,VWS V14.01,2013-02-12 17:54:00,
2013-02-12 12:59:00,54.5,28.1,29.99,WNW,300,1.0,10.0,36,0.00,,---,0.00,VWS V14.01,2013-02-12 17:59:00,
2013-02-12 13:04:00,54.6,28.9,29.98,West,276,3.0,9.0,37,0.00,,---,0.00,VWS V14.01,2013-02-12 18:04:00,
2013-02-12 13:09:00,54.6,28.2,29.98,West,266,2.0,9.0,36,0.00,,---,0.00,VWS V14.01,2013-02-12 18:09:00,
2013-02-12 13:14:00,54.8,27.7,29.98,NNE,16,4.0,9.0,35,0.00,,---,0.00,VWS V14.01,2013-02-12 18:14:00,
2013-02-12 13:19:00,54.6,27.5,29.98,North,4,4.0,9.0,35,0.00,,---,0.00,VWS V14.01,2013-02-12 18:19:00,
2013-02-12 13:24:00,54.7,27.6,29.97,WSW,238,2.0,9.0,35,0.00,,---,0.00,VWS V14.01,2013-02-12 18:24:00,
2013-02-12 13:29:00,55.1,28.0,29.97,South,174,1.0,9.0,35,0.00,,---,0.00,VWS V14.01,2013-02-12 18:29:00,
2013-02-12 13:34:00,55.4,29.6,29.97,WNW,286,1.0,8.0,37,0.00,,---,0.00,VWS V14.01,2013-02-12 18:34:00,
2013-02-12 13:39:00,56.1,28.1,29.96,WNW,298,4.0,8.0,34,0.00,,---,0.00,VWS V14.01,2013-02-12 18:39:00,
2013-02-12 13:44:00,56.0,28.8,29.96,NE,36,5.0,8.0,35,0.00,,---,0.00,VWS V14.01,2013-02-12 18:44:00,
2013-02-12 13:49:00,55.6,28.4,29.95,West,259,3.0,8.0,35,0.00,,---,0.00,VWS V14.01,2013-02-12 18:49:00,
2013-02-12 13:54:00,55.5,28.3,29.94,WNW,295,2.0,8.0,35,0.00,,---,0.00,VWS V14.01,2013-02-12 18:54:00,
2013-02-12 13:59:00,55.6,29.1,29.95,West,262,1.0,8.0,36,0.00,,---,0.00,VWS V14.01,2013-02-12 18:59:00,
2013-02-12 14:04:00,55.7,27.8,29.94,WNW,284,2.0,5.0,34,0.00,,---,0.00,VWS V14.01,2013-02-12 19:04:00,
2013-02-12 14:09:00,55.7,27.8,29.94,WNW,285,1.0,5.0,34,0.00,,---,0.00,VWS V14.01,2013-02-12 19:09:00,
2013-02-12 14:14:00,56.0,28.8,29.94,NE,41,0.0,5.0,35,0.00,,---,0.00,VWS V14.01,2013-02-12 19:14:00,
2013-02-12 14:19:00,56.6,29.3,29.94,WNW,283,3.0,5.0,35,0.00,,---,0.00,VWS V14.01,2013-02-12 19:19:00,
2013-02-12 14:24:00,56.7,29.4,29.93,SSW,207,1.0,5.0,35,0.00,,---,0.00,VWS V14.01,2013-02-12 19:24:00,
2013-02-12 14:29:00,56.8,28.8,29.93,WSW,238,3.0,7.0,34,0.00,,---,0.00,VWS V14.01,2013-02-12 19:29:00,
2013-02-12 14:34:00,57.0,28.9,29.91,NE,46,2.0,3.0,34,0.00,,---,0.00,VWS V14.01,2013-02-12 19:34:00,
2013-02-12 14:39:00,56.6,27.9,29.90,NW,315,0.0,6.0,33,0.00,,---,0.00,VWS V14.01,2013-02-12 19:39:00,
2013-02-12 14:44:00,56.6,28.6,29.89,North,1,3.0,6.0,34,0.00,,---,0.00,VWS V14.01,2013-02-12 19:44:00,
2013-02-12 14:49:00,56.1,27.4,29.87,NNE,26,1.0,6.0,33,0.00,,---,0.00,VWS V14.01,2013-02-12 19:49:00,
2013-02-12 14:54:00,55.8,27.9,29.89,West,259,1.0,6.0,34,0.00,,---,0.00,VWS V14.01,2013-02-12 19:54:00,
2013-02-12 14:59:00,55.7,27.8,29.89,WNW,295,3.0,6.0,34,0.00,,---,0.00,VWS V14.01,2013-02-12 19:59:00,
2013-02-12 15:04:00,56.0,28.0,29.91,SW,215,2.0,4.0,34,0.00,,---,0.00,VWS V14.01,2013-02-12 20:04:00,
2013-02-12 15:09:00,56.4,28.4,29.92,WNW,297,2.0,4.0,34,0.00,,---,0.00,VWS V14.01,2013-02-12 20:09:00,
2013-02-12 15:14:00,56.3,27.6,29.93,WNW,295,1.0,7.0,33,0.00,,---,0.00,VWS V14.01,2013-02-12 20:14:00,
2013-02-12 15:19:00,56.6,27.9,29.93,WNW,293,3.0,7.0,33,0.00,,---,0.00,VWS V14.01,2013-02-12 20:19:00,
2013-02-12 15:24:00,57.0,28.2,29.94,SSW,212,3.0,7.0,33,0.00,,---,0.00,VWS V14.01,2013-02-12 20:24:00,
2013-02-12 15:29:00,57.4,27.8,29.94,WNW,295,4.0,7.0,32,0.00,,---,0.00,VWS V14.01,2013-02-12 20:29:00,
2013-02-12 15:34:00,57.5,28.6,29.95,NW,315,2.0,5.0,33,0.00,,---,0.00,VWS V14.01,2013-02-12 20:34:00,
2013-02-12 15:39:00,57.4,27.8,29.96,West,281,1.0,6.0,32,0.00,,---,0.00,VWS V14.01,2013-02-12 20:39:00,
2013-02-12 15:44:00,57.5,27.9,29.97,West,275,2.0,6.0,32,0.00,,---,0.00,VWS V14.01,2013-02-12 20:44:00,
2013-02-12 15:49:00,57.5,28.6,29.96,SE,126,0.0,6.0,33,0.00,,---,0.00,VWS V14.01,2013-02-12 20:49:00,
2013-02-12 15:54:00,58.0,28.3,29.96,SSW,212,1.0,6.0,32,0.00,,---,0.00,VWS V14.01,2013-02-12 20:54:00,
2013-02-12 15:59:00,57.8,28.2,29.95,WNW,290,1.0,6.0,32,0.00,,---,0.00,VWS V14.01,2013-02-12 20:59:00,
2013-02-12 16:04:00,58.2,29.3,29.95,SE,136,0.0,2.0,33,0.00,,---,0.00,VWS V14.01,2013-02-12 21:04:00,
2013-02-12 16:09:00,58.4,28.7,29.95,SSW,199,0.0,3.0,32,0.00,,---,0.00,VWS V14.01,2013-02-12 21:09:00,
2013-02-12 16:14:00,58.8,28.3,29.96,SW,232,2.0,4.0,31,0.00,,---,0.00,VWS V14.01,2013-02-12 21:14:00,
2013-02-12 16:19:00,58.3,28.6,29.96,West,275,0.0,4.0,32,0.00,,---,0.00,VWS V14.01,2013-02-12 21:19:00,
2013-02-12 16:24:00,58.2,28.5,29.96,SW,225,0.0,5.0,32,0.00,,---,0.00,VWS V14.01,2013-02-12 21:24:00,
2013-02-12 16:29:00,58.5,28.8,29.95,SW,225,0.0,5.0,32,0.00,,---,0.00,VWS V14.01,2013-02-12 21:29:00,
2013-02-12 16:34:00,58.8,29.0,29.95,SW,225,0.0,0.0,32,0.00,,---,0.00,VWS V14.01,2013-02-12 21:34:00,
2013-02-12 16:39:00,58.7,28.9,29.95,SW,224,0.0,1.0,32,0.00,,---,0.00,VWS V14.01,2013-02-12 21:39:00,
2013-02-12 16:44:00,58.1,28.4,29.94,South,186,0.0,2.0,32,0.00,,---,0.00,VWS V14.01,2013-02-12 21:44:00,
2013-02-12 16:49:00,57.5,28.6,29.93,SE,146,0.0,4.0,33,0.00,,---,0.00,VWS V14.01,2013-02-12 21:49:00,
2013-02-12 16:54:00,57.0,29.6,29.93,NNW,333,0.0,4.0,35,0.00,,---,0.00,VWS V14.01,2013-02-12 21:54:00,
2013-02-12 16:59:00,56.4,29.1,29.94,SE,133,0.0,4.0,35,0.00,,---,0.00,VWS V14.01,2013-02-12 21:59:00,
2013-02-12 17:04:00,55.8,27.9,29.95,SSE,150,1.0,4.0,34,0.00,,---,0.00,VWS V14.01,2013-02-12 22:04:00,
2013-02-12 17:09:00,55.4,28.9,29.95,South,170,0.0,4.0,36,0.00,,---,0.00,VWS V14.01,2013-02-12 22:09:00,
2013-02-12 17:14:00,54.9,28.5,29.95,WNW,288,0.0,4.0,36,0.00,,---,0.00,VWS V14.01,2013-02-12 22:14:00,
2013-02-12 17:19:00,54.5,28.8,29.96,WNW,288,0.0,4.0,37,0.00,,---,0.00,VWS V14.01,2013-02-12 22:19:00,
2013-02-12 17:24:00,54.1,28.4,29.95,WNW,288,0.0,4.0,37,0.00,,---,0.00,VWS V14.01,2013-02-12 22:24:00,
2013-02-12 17:29:00,53.6,28.6,29.96,West,275,0.0,4.0,38,0.00,,---,0.00,VWS V14.01,2013-02-12 22:29:00,
2013-02-12 17:34:00,53.3,28.4,29.96,West,263,0.0,0.0,38,0.00,,---,0.00,VWS V14.01,2013-02-12 22:34:00,
2013-02-12 17:39:00,53.0,28.1,29.96,West,263,0.0,0.0,38,0.00,,---,0.00,VWS V14.01,2013-02-12 22:39:00,
2013-02-12 17:44:00,52.6,28.4,29.97,West,263,0.0,0.0,39,0.00,,---,0.00,VWS V14.01,2013-02-12 22:44:00,
2013-02-12 17:49:00,52.2,28.0,29.97,West,263,0.0,0.0,39,0.00,,---,0.00,VWS V14.01,2013-02-12 22:49:00,
2013-02-12 17:54:00,52.0,28.5,29.97,West,263,0.0,0.0,40,0.00,,---,0.00,VWS V14.01,2013-02-12 22:54:00,
2013-02-12 17:59:00,51.6,28.1,29.97,West,263,0.0,0.0,40,0.00,,---,0.00,VWS V14.01,2013-02-12 22:59:00,
2013-02-12 18:04:00,51.2,28.3,29.97,West,263,0.0,0.0,41,0.00,,---,0.00,VWS V14.01,2013-02-12 23:04:00,
2013-02-12 18:09:00,51.0,29.3,29.97,West,263,0.0,0.0,43,0.00,,---,0.00,VWS V14.01,2013-02-12 23:09:00,
2013-02-12 18:14:00,50.8,29.1,29.97,West,263,0.0,0.0,43,0.00,,---,0.00,VWS V14.01,2013-02-12 23:14:00,
2013-02-12 18:19:00,50.6,28.4,29.97,West,263,0.0,0.0,42,0.00,,---,0.00,VWS V14.01,2013-02-12 23:19:00,
2013-02-12 18:24:00,50.2,29.1,29.97,West,263,0.0,0.0,44,0.00,,---,0.00,VWS V14.01,2013-02-12 23:24:00,
2013-02-12 18:29:00,49.8,29.3,29.97,West,263,0.0,0.0,45,0.00,,---,0.00,VWS V14.01,2013-02-12 23:29:00,
2013-02-12 18:34:00,49.4,30.5,29.97,West,263,0.0,0.0,48,0.00,,---,0.00,VWS V14.01,2013-02-12 23:34:00,
2013-02-12 18:39:00,49.1,30.3,29.98,West,264,0.0,0.0,48,0.00,,---,0.00,VWS V14.01,2013-02-12 23:39:00,
2013-02-12 18:44:00,48.7,30.4,29.98,West,263,1.0,1.0,49,0.00,,---,0.00,VWS V14.01,2013-02-12 23:44:00,
2013-02-12 18:49:00,48.4,30.1,29.98,West,263,0.0,1.0,49,0.00,,---,0.00,VWS V14.01,2013-02-12 23:49:00,
2013-02-12 18:54:00,48.1,30.4,29.98,West,263,0.0,1.0,50,0.00,,---,0.00,VWS V14.01,2013-02-12 23:54:00,
2013-02-12 18:59:00,47.8,30.1,29.98,West,263,0.0,1.0,50,0.00,,---,0.00,VWS V14.01,2013-02-12 23:59:00,
2013-02-12 19:04:00,47.4,30.2,29.98,West,263,0.0,0.0,51,0.00,,---,0.00,VWS V14.01,2013-02-13 00:04:00,
2013-02-12 19:09:00,47.1,30.9,29.98,West,263,0.0,0.0,53,0.00,,---,0.00,VWS V14.01,2013-02-13 00:09:00,
2013-02-12 19:14:00,47.0,30.8,29.98,West,264,0.0,0.0,53,0.00,,---,0.00,VWS V14.01,2013-02-13 00:14:00,
2013-02-12 19:19:00,47.1,30.9,29.98,West,264,0.0,0.0,53,0.00,,---,0.00,VWS V14.01,2013-02-13 00:19:00,
2013-02-12 19:24:00,47.3,31.0,29.97,West,264,0.0,0.0,53,0.00,,---,0.00,VWS V14.01,2013-02-13 00:24:00,
2013-02-12 19:29:00,47.1,31.3,29.97,West,264,0.0,0.0,54,0.00,,---,0.00,VWS V14.01,2013-02-13 00:29:00,
2013-02-12 19:34:00,46.9,31.6,29.97,West,264,0.0,0.0,55,0.00,,---,0.00,VWS V14.01,2013-02-13 00:34:00,
2013-02-12 19:39:00,46.7,31.4,29.96,West,264,0.0,0.0,55,0.00,,---,0.00,VWS V14.01,2013-02-13 00:39:00,
2013-02-12 19:44:00,46.6,31.3,29.96,West,264,0.0,0.0,55,0.00,,---,0.00,VWS V14.01,2013-02-13 00:44:00,
2013-02-12 19:49:00,46.4,32.0,29.96,West,264,0.0,0.0,57,0.00,,---,0.00,VWS V14.01,2013-02-13 00:49:00,
2013-02-12 19:54:00,46.0,32.1,29.96,West,264,0.0,0.0,58,0.00,,---,0.00,VWS V14.01,2013-02-13 00:54:00,
2013-02-12 19:59:00,45.7,32.2,29.96,West,264,0.0,0.0,59,0.00,,---,0.00,VWS V14.01,2013-02-13 00:59:00,
2013-02-12 20:04:00,45.4,31.9,29.95,West,264,0.0,0.0,59,0.00,,---,0.00,VWS V14.01,2013-02-13 01:04:00,
2013-02-12 20:09:00,45.2,32.2,29.95,West,264,0.0,0.0,60,0.00,,---,0.00,VWS V14.01,2013-02-13 01:09:00,
2013-02-12 20:14:00,45.1,32.5,29.95,West,264,0.0,0.0,61,0.00,,---,0.00,VWS V14.01,2013-02-13 01:14:00,
2013-02-12 20:19:00,44.9,32.3,29.95,West,264,0.0,0.0,61,0.00,,---,0.00,VWS V14.01,2013-02-13 01:19:00,
2013-02-12 20:24:00,44.8,32.2,29.95,West,264,0.0,0.0,61,0.00,,---,0.00,VWS V14.01,2013-02-13 01:24:00,
2013-02-12 20:29:00,44.5,32.3,29.95,West,264,0.0,0.0,62,0.00,,---,0.00,VWS V14.01,2013-02-13 01:29:00,
2013-02-12 20:34:00,44.3,32.1,29.95,West,264,0.0,0.0,62,0.00,,---,0.00,VWS V14.01,2013-02-13 01:34:00,
2013-02-12 20:39:00,44.1,32.3,29.95,West,264,0.0,0.0,63,0.00,,---,0.00,VWS V14.01,2013-02-13 01:39:00,
2013-02-12 20:44:00,43.9,32.5,29.94,West,264,0.0,0.0,64,0.00,,---,0.00,VWS V14.01,2013-02-13 01:44:00,
2013-02-12 20:49:00,43.6,32.6,29.94,West,264,0.0,0.0,65,0.00,,---,0.00,VWS V14.01,2013-02-13 01:49:00,
2013-02-12 20:54:00,43.4,32.4,29.94,West,264,0.0,0.0,65,0.00,,---,0.00,VWS V14.01,2013-02-13 01:54:00,
2013-02-12 20:59:00,43.2,32.6,29.94,West,264,0.0,0.0,66,0.00,,---,0.00,VWS V14.01,2013-02-13 01:59:00,
2013-02-12 21:04:00,43.1,32.5,29.94,West,264,0.0,0.0,66,0.00,,---,0.00,VWS V14.01,2013-02-13 02:04:00,
2013-02-12 21:09:00,43.2,32.6,29.95,North,8,0.0,1.0,66,0.00,,---,0.00,VWS V14.01,2013-02-13 02:09:00,
2013-02-12 21:14:00,43.5,32.2,29.95,North,8,0.0,1.0,64,0.00,,---,0.00,VWS V14.01,2013-02-13 02:14:00,
2013-02-12 21:19:00,43.9,31.3,29.95,NNW,347,0.0,1.0,61,0.00,,---,0.00,VWS V14.01,2013-02-13 02:19:00,
2013-02-12 21:24:00,44.6,31.2,29.96,NNW,335,0.0,2.0,59,0.00,,---,0.00,VWS V14.01,2013-02-13 02:24:00,
2013-02-12 21:29:00,44.9,31.0,29.96,NNE,33,0.0,2.0,58,0.00,,---,0.00,VWS V14.01,2013-02-13 02:29:00,
2013-02-12 21:34:00,44.9,30.6,29.96,ESE,115,0.0,0.0,57,0.00,,---,0.00,VWS V14.01,2013-02-13 02:34:00,
2013-02-12 21:39:00,44.9,30.6,29.96,East,80,0.0,1.0,57,0.00,,---,0.00,VWS V14.01,2013-02-13 02:39:00,
2013-02-12 21:44:00,44.9,30.6,29.97,NW,309,0.0,2.0,57,0.00,,---,0.00,VWS V14.01,2013-02-13 02:44:00,
2013-02-12 21:49:00,44.8,30.5,29.97,NNE,32,0.0,2.0,57,0.00,,---,0.00,VWS V14.01,2013-02-13 02:49:00,
2013-02-12 21:54:00,44.8,30.9,29.98,ESE,117,0.0,2.0,58,0.00,,---,0.00,VWS V14.01,2013-02-13 02:54:00,
2013-02-12 21:59:00,44.7,30.9,29.99,ESE,111,0.0,2.0,58,0.00,,---,0.00,VWS V14.01,2013-02-13 02:59:00,
2013-02-12 22:04:00,44.5,30.7,29.99,ESE,122,0.0,0.0,58,0.00,,---,0.00,VWS V14.01,2013-02-13 03:04:00,
2013-02-12 22:09:00,44.2,30.8,29.99,ESE,122,0.0,0.0,59,0.00,,---,0.00,VWS V14.01,2013-02-13 03:09:00,
2013-02-12 22:14:00,44.0,31.0,29.98,ESE,123,0.0,0.0,60,0.00,,---,0.00,VWS V14.01,2013-02-13 03:14:00,
2013-02-12 22:19:00,43.8,30.8,29.98,SE,143,0.0,0.0,60,0.00,,---,0.00,VWS V14.01,2013-02-13 03:19:00,
2013-02-12 22:24:00,43.6,31.0,29.98,SE,138,0.0,0.0,61,0.00,,---,0.00,VWS V14.01,2013-02-13 03:24:00,
2013-02-12 22:29:00,43.4,30.9,29.98,SE,136,0.0,0.0,61,0.00,,---,0.00,VWS V14.01,2013-02-13 03:29:00,
2013-02-12 22:34:00,43.3,31.2,29.98,ESE,117,0.0,0.0,62,0.00,,---,0.00,VWS V14.01,2013-02-13 03:34:00,
2013-02-12 22:39:00,43.1,31.0,29.98,SSE,148,0.0,0.0,62,0.00,,---,0.00,VWS V14.01,2013-02-13 03:39:00,
2013-02-12 22:44:00,42.9,30.8,29.98,SSE,148,0.0,0.0,62,0.00,,---,0.00,VWS V14.01,2013-02-13 03:44:00,
2013-02-12 22:49:00,42.7,31.0,29.97,SSE,148,0.0,0.0,63,0.00,,---,0.00,VWS V14.01,2013-02-13 03:49:00,
2013-02-12 22:54:00,42.5,30.8,29.97,SSE,148,0.0,0.0,63,0.00,,---,0.00,VWS V14.01,2013-02-13 03:54:00,
2013-02-12 22:59:00,42.4,30.7,29.97,SSE,148,0.0,0.0,63,0.00,,---,0.00,VWS V14.01,2013-02-13 03:59:00,
2013-02-12 23:04:00,42.3,30.6,29.96,SSE,148,0.0,0.0,63,0.00,,---,0.00,VWS V14.01,2013-02-13 04:04:00,
2013-02-12 23:09:00,42.0,30.7,29.95,SSE,148,0.0,0.0,64,0.00,,---,0.00,VWS V14.01,2013-02-13 04:09:00,
2013-02-12 23:14:00,41.8,30.5,29.96,SSE,148,0.0,0.0,64,0.00,,---,0.00,VWS V14.01,2013-02-13 04:14:00,
2013-02-12 23:19:00,41.6,30.7,29.96,SSE,148,0.0,0.0,65,0.00,,---,0.00,VWS V14.01,2013-02-13 04:19:00,
2013-02-12 23:24:00,41.5,30.2,29.97,SE,146,0.0,0.0,64,0.00,,---,0.00,VWS V14.01,2013-02-13 04:24:00,
2013-02-12 23:29:00,41.5,30.2,29.97,SSE,147,0.0,0.0,64,0.00,,---,0.00,VWS V14.01,2013-02-13 04:29:00,
2013-02-12 23:34:00,41.3,30.1,29.97,SSE,148,0.0,0.0,64,0.00,,---,0.00,VWS V14.01,2013-02-13 04:34:00,
2013-02-12 23:39:00,41.2,30.0,29.97,SSE,148,0.0,0.0,64,0.00,,---,0.00,VWS V14.01,2013-02-13 04:39:00,
2013-02-12 23:44:00,41.1,29.9,29.96,SSE,148,0.0,0.0,64,0.00,,---,0.00,VWS V14.01,2013-02-13 04:44:00,
2013-02-12 23:49:00,40.9,29.7,29.97,SE,142,0.0,0.0,64,0.00,,---,0.00,VWS V14.01,2013-02-13 04:49:00,
2013-02-12 23:54:00,40.8,29.6,29.97,SE,140,0.0,0.0,64,0.00,,---,0.00,VWS V14.01,2013-02-13 04:54:00,
2013-02-12 23:59:00,40.7,29.5,29.98,ESE,108,0.0,2.0,64,0.00,,---,0.00,VWS V14.01,2013-02-13 04:59:00,